sensor_id;sensor_type;location;lat;lon;timestamp;P1;durP1;ratioP1;P2;durP2;ratioP2
25319;SDS011;13256;49.012;8.610;2024-01-15T00:00:51;43.13;;;13.02;;
25319;SDS011;13256;49.012;8.610;2024-01-15T00:03:23;43.00;;;14.43;;
25319;SDS011;13256;49.012;8.610;2024-01-15T00:05:50;46.53;;;14.93;;
25319;SDS011;13256;49.012;8.610;2024-01-15T00:08:17;45.30;;;15.18;;
25319;SDS011;13256;49.012;8.610;2024-01-15T00:10:49;39.70;;;13.00;;
25319;SDS011;13256;49.012;8.610;2024-01-15T00:13:17;44.10;;;13.30;;
25319;SDS011;13256;49.012;8.610;2024-01-15T00:15:46;48.83;;;15.23;;
25319;SDS011;13256;49.012;8.610;2024-01-15T00:18:16;43.10;;;15.30;;
25319;SDS011;13256;49.012;8.610;2024-01-15T00:20:45;47.60;;;15.95;;
25319;SDS011;13256;49.012;8.610;2024-01-15T00:23:12;50.67;;;14.32;;
25319;SDS011;13256;49.012;8.610;2024-01-15T00:25:50;50.00;;;16.58;;
25319;SDS011;13256;49.012;8.610;2024-01-15T00:28:17;46.13;;;15.38;;
25319;SDS011;13256;49.012;8.610;2024-01-15T00:30:48;48.90;;;17.00;;
25319;SDS011;13256;49.012;8.610;2024-01-15T00:33:19;53.83;;;16.33;;
25319;SDS011;13256;49.012;8.610;2024-01-15T00:35:46;49.30;;;17.00;;
25319;SDS011;13256;49.012;8.610;2024-01-15T00:38:16;59.47;;;17.98;;
25319;SDS011;13256;49.012;8.610;2024-01-15T00:40:43;45.88;;;16.65;;
25319;SDS011;13256;49.012;8.610;2024-01-15T00:43:09;45.70;;;14.73;;
25319;SDS011;13256;49.012;8.610;2024-01-15T00:45:37;51.25;;;16.10;;
25319;SDS011;13256;49.012;8.610;2024-01-15T00:53:36;44.63;;;15.90;;
25319;SDS011;13256;49.012;8.610;2024-01-15T00:56:07;53.90;;;16.05;;
25319;SDS011;13256;49.012;8.610;2024-01-15T00:58:34;56.60;;;17.00;;
25319;SDS011;13256;49.012;8.610;2024-01-15T01:01:01;58.72;;;16.73;;
25319;SDS011;13256;49.012;8.610;2024-01-15T01:03:31;45.38;;;16.30;;
25319;SDS011;13256;49.012;8.610;2024-01-15T01:06:00;55.35;;;16.60;;
25319;SDS011;13256;49.012;8.610;2024-01-15T01:08:27;50.63;;;17.45;;
25319;SDS011;13256;49.012;8.610;2024-01-15T01:10:57;50.50;;;16.67;;
25319;SDS011;13256;49.012;8.610;2024-01-15T01:13:28;58.03;;;17.38;;
25319;SDS011;13256;49.012;8.610;2024-01-15T01:15:57;49.40;;;14.73;;
25319;SDS011;13256;49.012;8.610;2024-01-15T01:18:51;48.70;;;15.93;;
25319;SDS011;13256;49.012;8.610;2024-01-15T01:21:19;49.95;;;16.20;;
25319;SDS011;13256;49.012;8.610;2024-01-15T01:23:48;51.45;;;15.88;;
25319;SDS011;13256;49.012;8.610;2024-01-15T01:26:15;47.10;;;16.02;;
25319;SDS011;13256;49.012;8.610;2024-01-15T01:28:46;50.30;;;15.30;;
25319;SDS011;13256;49.012;8.610;2024-01-15T01:31:13;50.90;;;16.30;;
25319;SDS011;13256;49.012;8.610;2024-01-15T01:33:39;41.95;;;16.25;;
25319;SDS011;13256;49.012;8.610;2024-01-15T01:36:07;52.72;;;15.95;;
25319;SDS011;13256;49.012;8.610;2024-01-15T01:38:42;60.97;;;15.77;;
25319;SDS011;13256;49.012;8.610;2024-01-15T01:41:42;55.50;;;15.82;;
25319;SDS011;13256;49.012;8.610;2024-01-15T01:44:12;54.80;;;16.63;;
25319;SDS011;13256;49.012;8.610;2024-01-15T01:46:42;56.20;;;16.85;;
25319;SDS011;13256;49.012;8.610;2024-01-15T01:49:09;43.42;;;14.52;;
25319;SDS011;13256;49.012;8.610;2024-01-15T01:51:36;48.75;;;15.20;;
25319;SDS011;13256;49.012;8.610;2024-01-15T01:54:07;47.55;;;15.88;;
25319;SDS011;13256;49.012;8.610;2024-01-15T01:56:40;44.40;;;13.70;;
25319;SDS011;13256;49.012;8.610;2024-01-15T01:59:11;50.07;;;13.87;;
25319;SDS011;13256;49.012;8.610;2024-01-15T02:01:39;38.85;;;12.50;;
25319;SDS011;13256;49.012;8.610;2024-01-15T02:04:11;37.55;;;13.27;;
25319;SDS011;13256;49.012;8.610;2024-01-15T02:06:39;32.72;;;10.25;;
25319;SDS011;13256;49.012;8.610;2024-01-15T02:09:08;34.58;;;10.38;;
25319;SDS011;13256;49.012;8.610;2024-01-15T02:11:36;41.55;;;10.70;;
25319;SDS011;13256;49.012;8.610;2024-01-15T02:14:08;39.63;;;13.57;;
25319;SDS011;13256;49.012;8.610;2024-01-15T02:16:35;42.30;;;12.02;;
25319;SDS011;13256;49.012;8.610;2024-01-15T02:19:03;38.70;;;13.00;;
25319;SDS011;13256;49.012;8.610;2024-01-15T02:21:33;35.47;;;10.80;;
25319;SDS011;13256;49.012;8.610;2024-01-15T02:24:03;37.95;;;12.55;;
25319;SDS011;13256;49.012;8.610;2024-01-15T02:26:31;39.08;;;13.52;;
25319;SDS011;13256;49.012;8.610;2024-01-15T02:29:02;40.50;;;13.73;;
25319;SDS011;13256;49.012;8.610;2024-01-15T02:31:31;34.75;;;12.32;;
25319;SDS011;13256;49.012;8.610;2024-01-15T02:34:03;33.70;;;10.93;;
25319;SDS011;13256;49.012;8.610;2024-01-15T02:36:33;41.70;;;13.88;;
25319;SDS011;13256;49.012;8.610;2024-01-15T02:39:28;41.70;;;14.07;;
25319;SDS011;13256;49.012;8.610;2024-01-15T02:41:55;41.78;;;14.93;;
25319;SDS011;13256;49.012;8.610;2024-01-15T02:44:23;34.17;;;11.98;;
25319;SDS011;13256;49.012;8.610;2024-01-15T02:46:52;34.22;;;13.02;;
25319;SDS011;13256;49.012;8.610;2024-01-15T02:52:14;37.78;;;13.82;;
25319;SDS011;13256;49.012;8.610;2024-01-15T02:54:46;48.40;;;14.43;;
25319;SDS011;13256;49.012;8.610;2024-01-15T02:57:13;47.60;;;13.93;;
25319;SDS011;13256;49.012;8.610;2024-01-15T02:59:42;43.63;;;15.00;;
25319;SDS011;13256;49.012;8.610;2024-01-15T03:02:12;46.22;;;15.07;;
25319;SDS011;13256;49.012;8.610;2024-01-15T03:04:43;41.60;;;13.32;;
25319;SDS011;13256;49.012;8.610;2024-01-15T03:07:13;40.42;;;13.70;;
25319;SDS011;13256;49.012;8.610;2024-01-15T03:09:39;48.33;;;15.48;;
25319;SDS011;13256;49.012;8.610;2024-01-15T03:12:07;47.33;;;14.55;;
25319;SDS011;13256;49.012;8.610;2024-01-15T03:14:40;44.95;;;13.32;;
25319;SDS011;13256;49.012;8.610;2024-01-15T03:17:08;48.42;;;14.52;;
25319;SDS011;13256;49.012;8.610;2024-01-15T03:19:36;47.22;;;12.95;;
25319;SDS011;13256;49.012;8.610;2024-01-15T03:22:03;44.58;;;13.48;;
25319;SDS011;13256;49.012;8.610;2024-01-15T03:24:42;36.22;;;12.18;;
25319;SDS011;13256;49.012;8.610;2024-01-15T03:27:11;41.88;;;13.07;;
25319;SDS011;13256;49.012;8.610;2024-01-15T03:29:39;34.30;;;12.60;;
25319;SDS011;13256;49.012;8.610;2024-01-15T03:32:06;49.88;;;14.77;;
25319;SDS011;13256;49.012;8.610;2024-01-15T03:34:33;45.63;;;14.38;;
25319;SDS011;13256;49.012;8.610;2024-01-15T03:37:17;47.53;;;16.27;;
25319;SDS011;13256;49.012;8.610;2024-01-15T03:39:49;39.28;;;14.48;;
25319;SDS011;13256;49.012;8.610;2024-01-15T03:42:16;49.33;;;14.65;;
25319;SDS011;13256;49.012;8.610;2024-01-15T03:44:46;45.83;;;14.45;;
25319;SDS011;13256;49.012;8.610;2024-01-15T03:47:13;43.88;;;14.10;;
25319;SDS011;13256;49.012;8.610;2024-01-15T03:49:42;46.22;;;14.63;;
25319;SDS011;13256;49.012;8.610;2024-01-15T03:55:44;45.40;;;14.07;;
25319;SDS011;13256;49.012;8.610;2024-01-15T03:58:14;44.00;;;13.60;;
25319;SDS011;13256;49.012;8.610;2024-01-15T04:00:41;41.42;;;14.27;;
25319;SDS011;13256;49.012;8.610;2024-01-15T04:03:09;45.33;;;14.77;;
25319;SDS011;13256;49.012;8.610;2024-01-15T04:05:38;42.75;;;14.27;;
25319;SDS011;13256;49.012;8.610;2024-01-15T04:08:08;40.20;;;14.88;;
25319;SDS011;13256;49.012;8.610;2024-01-15T04:10:38;41.13;;;15.20;;
25319;SDS011;13256;49.012;8.610;2024-01-15T04:13:08;43.83;;;14.63;;
25319;SDS011;13256;49.012;8.610;2024-01-15T04:15:35;41.03;;;14.32;;
25319;SDS011;13256;49.012;8.610;2024-01-15T04:18:05;52.22;;;17.38;;
25319;SDS011;13256;49.012;8.610;2024-01-15T04:20:35;43.65;;;14.20;;
25319;SDS011;13256;49.012;8.610;2024-01-15T04:23:03;42.28;;;14.52;;
25319;SDS011;13256;49.012;8.610;2024-01-15T04:25:30;38.70;;;14.13;;
25319;SDS011;13256;49.012;8.610;2024-01-15T04:27:57;43.97;;;15.65;;
25319;SDS011;13256;49.012;8.610;2024-01-15T04:30:24;47.10;;;17.33;;
25319;SDS011;13256;49.012;8.610;2024-01-15T04:32:55;46.08;;;15.90;;
25319;SDS011;13256;49.012;8.610;2024-01-15T04:35:26;45.08;;;14.43;;
25319;SDS011;13256;49.012;8.610;2024-01-15T04:37:53;41.33;;;14.82;;
25319;SDS011;13256;49.012;8.610;2024-01-15T04:40:20;50.53;;;14.90;;
25319;SDS011;13256;49.012;8.610;2024-01-15T04:42:46;43.58;;;14.13;;
25319;SDS011;13256;49.012;8.610;2024-01-15T04:45:13;49.08;;;16.67;;
25319;SDS011;13256;49.012;8.610;2024-01-15T04:47:48;62.28;;;19.25;;
25319;SDS011;13256;49.012;8.610;2024-01-15T04:50:30;43.13;;;15.38;;
25319;SDS011;13256;49.012;8.610;2024-01-15T04:53:00;45.47;;;15.15;;
25319;SDS011;13256;49.012;8.610;2024-01-15T04:55:29;44.70;;;14.57;;
25319;SDS011;13256;49.012;8.610;2024-01-15T04:58:05;46.72;;;15.88;;
25319;SDS011;13256;49.012;8.610;2024-01-15T05:00:32;42.30;;;15.23;;
25319;SDS011;13256;49.012;8.610;2024-01-15T05:03:05;45.15;;;16.05;;
25319;SDS011;13256;49.012;8.610;2024-01-15T05:05:32;38.42;;;13.85;;
25319;SDS011;13256;49.012;8.610;2024-01-15T05:08:03;36.45;;;14.60;;
25319;SDS011;13256;49.012;8.610;2024-01-15T05:10:30;40.33;;;12.88;;
25319;SDS011;13256;49.012;8.610;2024-01-15T05:13:04;32.17;;;11.48;;
25319;SDS011;13256;49.012;8.610;2024-01-15T05:18:27;37.45;;;12.65;;
25319;SDS011;13256;49.012;8.610;2024-01-15T05:20:54;36.10;;;11.98;;
25319;SDS011;13256;49.012;8.610;2024-01-15T05:23:23;37.72;;;13.55;;
25319;SDS011;13256;49.012;8.610;2024-01-15T05:25:54;41.33;;;13.45;;
25319;SDS011;13256;49.012;8.610;2024-01-15T05:28:20;42.05;;;13.40;;
25319;SDS011;13256;49.012;8.610;2024-01-15T05:30:54;43.45;;;14.02;;
25319;SDS011;13256;49.012;8.610;2024-01-15T05:33:22;35.97;;;13.82;;
25319;SDS011;13256;49.012;8.610;2024-01-15T05:35:52;42.40;;;15.63;;
25319;SDS011;13256;49.012;8.610;2024-01-15T05:38:20;41.28;;;14.35;;
25319;SDS011;13256;49.012;8.610;2024-01-15T05:40:49;40.05;;;14.30;;
25319;SDS011;13256;49.012;8.610;2024-01-15T05:43:15;35.67;;;14.10;;
25319;SDS011;13256;49.012;8.610;2024-01-15T05:45:43;43.33;;;13.90;;
25319;SDS011;13256;49.012;8.610;2024-01-15T05:48:11;44.65;;;15.63;;
25319;SDS011;13256;49.012;8.610;2024-01-15T05:50:41;40.33;;;12.88;;
25319;SDS011;13256;49.012;8.610;2024-01-15T05:53:08;41.47;;;14.75;;
25319;SDS011;13256;49.012;8.610;2024-01-15T05:55:43;44.47;;;15.38;;
25319;SDS011;13256;49.012;8.610;2024-01-15T05:58:16;43.33;;;13.95;;
25319;SDS011;13256;49.012;8.610;2024-01-15T06:00:43;41.40;;;14.38;;
25319;SDS011;13256;49.012;8.610;2024-01-15T06:03:32;50.75;;;15.13;;
25319;SDS011;13256;49.012;8.610;2024-01-15T06:06:02;34.28;;;13.60;;
25319;SDS011;13256;49.012;8.610;2024-01-15T06:08:29;47.95;;;15.95;;
25319;SDS011;13256;49.012;8.610;2024-01-15T06:10:56;41.42;;;13.82;;
25319;SDS011;13256;49.012;8.610;2024-01-15T06:13:28;38.25;;;15.32;;
25319;SDS011;13256;49.012;8.610;2024-01-15T06:15:59;40.97;;;14.35;;
25319;SDS011;13256;49.012;8.610;2024-01-15T06:18:37;42.15;;;14.52;;
25319;SDS011;13256;49.012;8.610;2024-01-15T06:21:10;44.53;;;17.23;;
25319;SDS011;13256;49.012;8.610;2024-01-15T06:23:38;42.38;;;14.63;;
25319;SDS011;13256;49.012;8.610;2024-01-15T06:26:05;40.65;;;14.38;;
25319;SDS011;13256;49.012;8.610;2024-01-15T06:28:37;44.15;;;14.77;;
25319;SDS011;13256;49.012;8.610;2024-01-15T06:31:05;37.72;;;14.70;;
25319;SDS011;13256;49.012;8.610;2024-01-15T06:33:35;33.75;;;12.77;;
25319;SDS011;13256;49.012;8.610;2024-01-15T06:36:07;38.83;;;13.85;;
25319;SDS011;13256;49.012;8.610;2024-01-15T06:38:37;45.53;;;14.55;;
25319;SDS011;13256;49.012;8.610;2024-01-15T06:41:03;40.38;;;14.18;;
25319;SDS011;13256;49.012;8.610;2024-01-15T06:43:30;37.95;;;13.35;;
25319;SDS011;13256;49.012;8.610;2024-01-15T06:46:00;34.63;;;12.82;;
25319;SDS011;13256;49.012;8.610;2024-01-15T06:48:33;35.20;;;12.80;;
25319;SDS011;13256;49.012;8.610;2024-01-15T06:51:02;33.08;;;13.10;;
25319;SDS011;13256;49.012;8.610;2024-01-15T06:53:29;35.30;;;13.52;;
25319;SDS011;13256;49.012;8.610;2024-01-15T06:56:07;36.42;;;14.38;;
25319;SDS011;13256;49.012;8.610;2024-01-15T06:58:37;46.47;;;17.27;;
25319;SDS011;13256;49.012;8.610;2024-01-15T07:01:09;38.58;;;15.13;;
25319;SDS011;13256;49.012;8.610;2024-01-15T07:03:37;48.00;;;18.20;;
25319;SDS011;13256;49.012;8.610;2024-01-15T07:06:11;40.67;;;14.93;;
25319;SDS011;13256;49.012;8.610;2024-01-15T07:08:42;42.97;;;16.17;;
25319;SDS011;13256;49.012;8.610;2024-01-15T07:11:33;41.33;;;13.55;;
25319;SDS011;13256;49.012;8.610;2024-01-15T07:14:25;46.15;;;17.23;;
25319;SDS011;13256;49.012;8.610;2024-01-15T07:16:54;43.17;;;15.85;;
25319;SDS011;13256;49.012;8.610;2024-01-15T07:19:21;43.50;;;15.38;;
25319;SDS011;13256;49.012;8.610;2024-01-15T07:21:47;39.65;;;16.00;;
25319;SDS011;13256;49.012;8.610;2024-01-15T07:24:18;46.45;;;16.17;;
25319;SDS011;13256;49.012;8.610;2024-01-15T07:26:48;40.08;;;14.85;;
25319;SDS011;13256;49.012;8.610;2024-01-15T07:29:20;43.42;;;15.55;;
25319;SDS011;13256;49.012;8.610;2024-01-15T07:31:51;40.22;;;14.77;;
25319;SDS011;13256;49.012;8.610;2024-01-15T07:34:18;43.85;;;16.23;;
25319;SDS011;13256;49.012;8.610;2024-01-15T07:36:46;42.05;;;15.68;;
25319;SDS011;13256;49.012;8.610;2024-01-15T07:39:17;36.78;;;14.75;;
25319;SDS011;13256;49.012;8.610;2024-01-15T07:41:43;45.40;;;17.02;;
25319;SDS011;13256;49.012;8.610;2024-01-15T07:44:13;38.72;;;14.40;;
25319;SDS011;13256;49.012;8.610;2024-01-15T07:46:44;43.97;;;15.75;;
25319;SDS011;13256;49.012;8.610;2024-01-15T07:49:13;42.05;;;14.80;;
25319;SDS011;13256;49.012;8.610;2024-01-15T07:51:43;46.25;;;15.82;;
25319;SDS011;13256;49.012;8.610;2024-01-15T07:54:13;36.47;;;14.40;;
25319;SDS011;13256;49.012;8.610;2024-01-15T07:56:53;41.03;;;14.18;;
25319;SDS011;13256;49.012;8.610;2024-01-15T07:59:21;38.35;;;14.50;;
25319;SDS011;13256;49.012;8.610;2024-01-15T08:01:51;45.17;;;15.52;;
25319;SDS011;13256;49.012;8.610;2024-01-15T08:04:21;32.97;;;13.63;;
25319;SDS011;13256;49.012;8.610;2024-01-15T08:10:10;39.90;;;14.73;;
25319;SDS011;13256;49.012;8.610;2024-01-15T08:12:40;41.17;;;13.45;;
25319;SDS011;13256;49.012;8.610;2024-01-15T08:15:07;41.03;;;13.90;;
25319;SDS011;13256;49.012;8.610;2024-01-15T08:17:34;43.92;;;14.50;;
25319;SDS011;13256;49.012;8.610;2024-01-15T08:20:01;34.72;;;12.50;;
25319;SDS011;13256;49.012;8.610;2024-01-15T08:22:33;36.53;;;12.95;;
25319;SDS011;13256;49.012;8.610;2024-01-15T08:25:03;34.47;;;12.60;;
25319;SDS011;13256;49.012;8.610;2024-01-15T08:27:30;37.10;;;13.88;;
25319;SDS011;13256;49.012;8.610;2024-01-15T08:30:00;41.00;;;15.25;;
25319;SDS011;13256;49.012;8.610;2024-01-15T08:32:27;32.85;;;12.80;;
25319;SDS011;13256;49.012;8.610;2024-01-15T08:34:56;34.45;;;13.00;;
25319;SDS011;13256;49.012;8.610;2024-01-15T08:37:26;33.67;;;12.60;;
25319;SDS011;13256;49.012;8.610;2024-01-15T08:39:53;35.22;;;13.95;;
25319;SDS011;13256;49.012;8.610;2024-01-15T08:42:21;33.28;;;12.00;;
25319;SDS011;13256;49.012;8.610;2024-01-15T08:44:48;32.22;;;11.32;;
25319;SDS011;13256;49.012;8.610;2024-01-15T08:47:15;31.02;;;13.02;;
25319;SDS011;13256;49.012;8.610;2024-01-15T08:49:52;38.03;;;11.75;;
25319;SDS011;13256;49.012;8.610;2024-01-15T08:52:21;32.55;;;12.20;;
25319;SDS011;13256;49.012;8.610;2024-01-15T08:54:50;32.28;;;12.25;;
25319;SDS011;13256;49.012;8.610;2024-01-15T08:57:26;44.10;;;14.35;;
25319;SDS011;13256;49.012;8.610;2024-01-15T08:59:53;34.67;;;14.45;;
25319;SDS011;13256;49.012;8.610;2024-01-15T09:02:31;31.52;;;12.25;;
25319;SDS011;13256;49.012;8.610;2024-01-15T09:05:01;41.40;;;13.43;;
25319;SDS011;13256;49.012;8.610;2024-01-15T09:07:32;33.45;;;12.32;;
25319;SDS011;13256;49.012;8.610;2024-01-15T09:10:00;29.67;;;10.32;;
25319;SDS011;13256;49.012;8.610;2024-01-15T09:12:27;30.83;;;11.65;;
25319;SDS011;13256;49.012;8.610;2024-01-15T09:14:55;28.70;;;11.73;;
25319;SDS011;13256;49.012;8.610;2024-01-15T09:17:25;29.80;;;12.00;;
25319;SDS011;13256;49.012;8.610;2024-01-15T09:19:54;27.50;;;11.53;;
25319;SDS011;13256;49.012;8.610;2024-01-15T09:22:27;30.77;;;12.02;;
25319;SDS011;13256;49.012;8.610;2024-01-15T09:24:54;27.52;;;10.93;;
25319;SDS011;13256;49.012;8.610;2024-01-15T09:27:26;26.35;;;11.32;;
25319;SDS011;13256;49.012;8.610;2024-01-15T09:29:53;26.05;;;10.30;;
25319;SDS011;13256;49.012;8.610;2024-01-15T09:32:20;29.30;;;11.70;;
25319;SDS011;13256;49.012;8.610;2024-01-15T09:34:52;27.70;;;11.50;;
25319;SDS011;13256;49.012;8.610;2024-01-15T09:37:19;27.80;;;10.13;;
25319;SDS011;13256;49.012;8.610;2024-01-15T09:40:06;28.48;;;10.63;;
25319;SDS011;13256;49.012;8.610;2024-01-15T09:42:37;28.08;;;10.75;;
25319;SDS011;13256;49.012;8.610;2024-01-15T09:45:07;30.85;;;12.73;;
25319;SDS011;13256;49.012;8.610;2024-01-15T09:47:36;27.50;;;11.25;;
25319;SDS011;13256;49.012;8.610;2024-01-15T09:50:13;28.73;;;10.85;;
25319;SDS011;13256;49.012;8.610;2024-01-15T09:52:44;31.05;;;11.95;;
25319;SDS011;13256;49.012;8.610;2024-01-15T09:55:12;35.45;;;12.80;;
25319;SDS011;13256;49.012;8.610;2024-01-15T09:57:44;35.42;;;13.13;;
25319;SDS011;13256;49.012;8.610;2024-01-15T10:00:17;29.65;;;12.63;;
25319;SDS011;13256;49.012;8.610;2024-01-15T10:02:44;35.03;;;12.48;;
25319;SDS011;13256;49.012;8.610;2024-01-15T10:05:14;37.08;;;13.13;;
25319;SDS011;13256;49.012;8.610;2024-01-15T10:07:41;33.28;;;13.73;;
25319;SDS011;13256;49.012;8.610;2024-01-15T10:10:10;32.90;;;11.55;;
25319;SDS011;13256;49.012;8.610;2024-01-15T10:12:37;33.92;;;13.02;;
25319;SDS011;13256;49.012;8.610;2024-01-15T10:15:08;32.45;;;12.55;;
25319;SDS011;13256;49.012;8.610;2024-01-15T10:17:38;31.42;;;12.30;;
25319;SDS011;13256;49.012;8.610;2024-01-15T10:20:09;26.35;;;11.85;;
25319;SDS011;13256;49.012;8.610;2024-01-15T10:22:41;29.65;;;11.95;;
25319;SDS011;13256;49.012;8.610;2024-01-15T10:25:11;29.75;;;11.02;;
25319;SDS011;13256;49.012;8.610;2024-01-15T10:27:39;26.52;;;12.40;;
25319;SDS011;13256;49.012;8.610;2024-01-15T10:30:08;29.27;;;10.88;;
25319;SDS011;13256;49.012;8.610;2024-01-15T10:32:36;31.23;;;11.82;;
25319;SDS011;13256;49.012;8.610;2024-01-15T10:35:05;31.08;;;10.55;;
25319;SDS011;13256;49.012;8.610;2024-01-15T10:37:37;32.83;;;11.80;;
25319;SDS011;13256;49.012;8.610;2024-01-15T10:40:05;34.60;;;11.80;;
25319;SDS011;13256;49.012;8.610;2024-01-15T10:42:38;25.67;;;9.95;;
25319;SDS011;13256;49.012;8.610;2024-01-15T10:45:07;28.73;;;11.60;;
25319;SDS011;13256;49.012;8.610;2024-01-15T10:47:35;29.90;;;10.98;;
25319;SDS011;13256;49.012;8.610;2024-01-15T10:50:31;32.55;;;12.80;;
25319;SDS011;13256;49.012;8.610;2024-01-15T10:53:09;32.05;;;11.20;;
25319;SDS011;13256;49.012;8.610;2024-01-15T10:55:41;26.33;;;10.07;;
25319;SDS011;13256;49.012;8.610;2024-01-15T10:58:09;28.85;;;9.75;;
25319;SDS011;13256;49.012;8.610;2024-01-15T11:00:38;27.33;;;10.07;;
25319;SDS011;13256;49.012;8.610;2024-01-15T11:03:06;27.60;;;11.30;;
25319;SDS011;13256;49.012;8.610;2024-01-15T11:05:41;25.70;;;9.25;;
25319;SDS011;13256;49.012;8.610;2024-01-15T11:08:10;25.15;;;8.95;;
25319;SDS011;13256;49.012;8.610;2024-01-15T11:10:41;24.13;;;9.70;;
25319;SDS011;13256;49.012;8.610;2024-01-15T11:13:09;20.38;;;9.23;;
25319;SDS011;13256;49.012;8.610;2024-01-15T11:18:31;25.55;;;10.77;;
25319;SDS011;13256;49.012;8.610;2024-01-15T11:23:59;19.52;;;8.77;;
25319;SDS011;13256;49.012;8.610;2024-01-15T11:26:37;23.15;;;9.05;;
25319;SDS011;13256;49.012;8.610;2024-01-15T11:31:59;23.33;;;8.23;;
25319;SDS011;13256;49.012;8.610;2024-01-15T11:43:04;20.05;;;9.23;;
25319;SDS011;13256;49.012;8.610;2024-01-15T11:45:35;26.45;;;10.38;;
25319;SDS011;13256;49.012;8.610;2024-01-15T11:50:48;22.80;;;9.68;;
25319;SDS011;13256;49.012;8.610;2024-01-15T11:53:16;34.75;;;14.15;;
25319;SDS011;13256;49.012;8.610;2024-01-15T11:55:50;32.55;;;11.85;;
25319;SDS011;13256;49.012;8.610;2024-01-15T11:58:18;28.02;;;10.77;;
25319;SDS011;13256;49.012;8.610;2024-01-15T12:00:47;34.70;;;12.45;;
25319;SDS011;13256;49.012;8.610;2024-01-15T12:03:17;33.25;;;13.35;;
25319;SDS011;13256;49.012;8.610;2024-01-15T12:05:52;23.27;;;9.80;;
25319;SDS011;13256;49.012;8.610;2024-01-15T12:08:20;25.35;;;10.38;;
25319;SDS011;13256;49.012;8.610;2024-01-15T12:10:49;28.25;;;10.32;;
25319;SDS011;13256;49.012;8.610;2024-01-15T12:13:16;24.40;;;9.27;;
25319;SDS011;13256;49.012;8.610;2024-01-15T12:15:46;25.15;;;9.60;;
25319;SDS011;13256;49.012;8.610;2024-01-15T12:18:16;26.30;;;9.82;;
25319;SDS011;13256;49.012;8.610;2024-01-15T12:20:50;27.77;;;10.70;;
25319;SDS011;13256;49.012;8.610;2024-01-15T12:23:21;30.10;;;11.00;;
25319;SDS011;13256;49.012;8.610;2024-01-15T12:25:48;20.00;;;9.02;;
25319;SDS011;13256;49.012;8.610;2024-01-15T12:28:16;20.27;;;9.07;;
25319;SDS011;13256;49.012;8.610;2024-01-15T12:34:15;30.30;;;9.85;;
25319;SDS011;13256;49.012;8.610;2024-01-15T12:36:45;22.27;;;10.05;;
25319;SDS011;13256;49.012;8.610;2024-01-15T12:39:13;31.50;;;11.77;;
25319;SDS011;13256;49.012;8.610;2024-01-15T12:41:44;24.05;;;9.27;;
25319;SDS011;13256;49.012;8.610;2024-01-15T12:44:12;24.50;;;9.73;;
25319;SDS011;13256;49.012;8.610;2024-01-15T12:46:42;25.13;;;10.07;;
25319;SDS011;13256;49.012;8.610;2024-01-15T12:49:10;28.83;;;11.57;;
25319;SDS011;13256;49.012;8.610;2024-01-15T12:51:38;18.63;;;9.27;;
25319;SDS011;13256;49.012;8.610;2024-01-15T12:54:05;19.67;;;8.70;;
25319;SDS011;13256;49.012;8.610;2024-01-15T12:56:35;18.80;;;8.52;;
25319;SDS011;13256;49.012;8.610;2024-01-15T12:59:01;27.65;;;9.10;;
25319;SDS011;13256;49.012;8.610;2024-01-15T13:01:28;19.30;;;7.63;;
25319;SDS011;13256;49.012;8.610;2024-01-15T13:03:57;18.70;;;7.78;;
25319;SDS011;13256;49.012;8.610;2024-01-15T13:06:24;19.60;;;9.00;;
25319;SDS011;13256;49.012;8.610;2024-01-15T13:08:51;19.75;;;7.72;;
25319;SDS011;13256;49.012;8.610;2024-01-15T13:11:20;19.35;;;8.27;;
25319;SDS011;13256;49.012;8.610;2024-01-15T13:16:51;21.50;;;10.00;;
25319;SDS011;13256;49.012;8.610;2024-01-15T13:19:22;24.35;;;9.93;;
25319;SDS011;13256;49.012;8.610;2024-01-15T13:21:50;21.35;;;8.90;;
25319;SDS011;13256;49.012;8.610;2024-01-15T13:24:19;20.35;;;7.97;;
25319;SDS011;13256;49.012;8.610;2024-01-15T13:29:42;15.32;;;8.20;;
25319;SDS011;13256;49.012;8.610;2024-01-15T13:35:07;27.20;;;10.60;;
25319;SDS011;13256;49.012;8.610;2024-01-15T13:37:39;18.35;;;9.23;;
25319;SDS011;13256;49.012;8.610;2024-01-15T13:40:07;18.23;;;8.07;;
25319;SDS011;13256;49.012;8.610;2024-01-15T13:42:35;20.45;;;8.68;;
25319;SDS011;13256;49.012;8.610;2024-01-15T13:45:08;20.02;;;8.45;;
25319;SDS011;13256;49.012;8.610;2024-01-15T13:47:37;22.88;;;9.57;;
25319;SDS011;13256;49.012;8.610;2024-01-15T13:50:05;17.55;;;8.52;;
25319;SDS011;13256;49.012;8.610;2024-01-15T13:52:33;22.83;;;9.70;;
25319;SDS011;13256;49.012;8.610;2024-01-15T13:55:02;19.30;;;8.90;;
25319;SDS011;13256;49.012;8.610;2024-01-15T13:57:29;26.95;;;11.95;;
25319;SDS011;13256;49.012;8.610;2024-01-15T13:59:56;18.45;;;7.30;;
25319;SDS011;13256;49.012;8.610;2024-01-15T14:02:23;26.77;;;10.55;;
25319;SDS011;13256;49.012;8.610;2024-01-15T14:04:52;23.45;;;11.32;;
25319;SDS011;13256;49.012;8.610;2024-01-15T14:07:19;30.65;;;11.68;;
25319;SDS011;13256;49.012;8.610;2024-01-15T14:09:46;18.30;;;9.27;;
25319;SDS011;13256;49.012;8.610;2024-01-15T14:12:15;19.40;;;9.88;;
25319;SDS011;13256;49.012;8.610;2024-01-15T14:14:44;21.80;;;9.43;;
25319;SDS011;13256;49.012;8.610;2024-01-15T14:17:15;17.95;;;9.63;;
25319;SDS011;13256;49.012;8.610;2024-01-15T14:19:45;19.00;;;8.50;;
25319;SDS011;13256;49.012;8.610;2024-01-15T14:22:12;14.48;;;7.57;;
25319;SDS011;13256;49.012;8.610;2024-01-15T14:24:47;18.20;;;8.43;;
25319;SDS011;13256;49.012;8.610;2024-01-15T14:27:16;17.42;;;8.38;;
25319;SDS011;13256;49.012;8.610;2024-01-15T14:29:44;17.75;;;8.25;;
25319;SDS011;13256;49.012;8.610;2024-01-15T14:32:17;17.15;;;8.93;;
25319;SDS011;13256;49.012;8.610;2024-01-15T14:34:44;17.60;;;8.57;;
25319;SDS011;13256;49.012;8.610;2024-01-15T14:37:12;19.33;;;8.48;;
25319;SDS011;13256;49.012;8.610;2024-01-15T14:39:42;17.33;;;9.32;;
25319;SDS011;13256;49.012;8.610;2024-01-15T14:42:09;18.70;;;8.95;;
25319;SDS011;13256;49.012;8.610;2024-01-15T14:44:37;29.63;;;12.50;;
25319;SDS011;13256;49.012;8.610;2024-01-15T14:47:07;21.25;;;8.98;;
25319;SDS011;13256;49.012;8.610;2024-01-15T14:49:34;21.25;;;10.45;;
25319;SDS011;13256;49.012;8.610;2024-01-15T14:52:02;20.20;;;9.77;;
25319;SDS011;13256;49.012;8.610;2024-01-15T14:57:24;17.85;;;8.25;;
25319;SDS011;13256;49.012;8.610;2024-01-15T14:59:54;16.58;;;8.60;;
25319;SDS011;13256;49.012;8.610;2024-01-15T15:02:21;19.15;;;8.80;;
25319;SDS011;13256;49.012;8.610;2024-01-15T15:04:50;21.40;;;8.88;;
25319;SDS011;13256;49.012;8.610;2024-01-15T15:07:17;22.75;;;9.10;;
25319;SDS011;13256;49.012;8.610;2024-01-15T15:09:45;15.65;;;8.07;;
25319;SDS011;13256;49.012;8.610;2024-01-15T15:12:12;26.35;;;11.25;;
25319;SDS011;13256;49.012;8.610;2024-01-15T15:14:41;21.85;;;10.32;;
25319;SDS011;13256;49.012;8.610;2024-01-15T15:17:26;23.90;;;9.75;;
25319;SDS011;13256;49.012;8.610;2024-01-15T15:19:52;24.45;;;9.20;;
25319;SDS011;13256;49.012;8.610;2024-01-15T15:22:36;19.35;;;9.45;;
25319;SDS011;13256;49.012;8.610;2024-01-15T15:25:36;27.23;;;10.90;;
25319;SDS011;13256;49.012;8.610;2024-01-15T15:28:12;17.00;;;8.38;;
25319;SDS011;13256;49.012;8.610;2024-01-15T15:30:49;40.75;;;13.82;;
25319;SDS011;13256;49.012;8.610;2024-01-15T15:33:16;17.10;;;8.23;;